Terminal Aerodrome Forecast
Issued by NWS Tulsa, OK

Home | Current Version | Previous Version | Text Only | Print | Product List | Glossary On
Versions: 1 2 3 4 5 6 7 8 9 10 11 12 13 14 15 16 17
234
FTUS44 KTSA 181726
TAFTUL
TAF
KTUL 181726Z 1818/1918 17020G28KT P6SM BKN020 OVC250
      TEMPO 1823/1903 BKN015
     FM190300 18012G20KT P6SM VCSH OVC010 PROB30 1906/1912 6SM -RA
      BKN010
     FM191200 19015G25KT 6SM -RA BKN010=

USA.gov is the U.S. government's official web portal to all federal, state and local government web resources and services.